createdAt,value
2017-07-11T00:01:38.702Z,26.97
2017-07-11T00:04:08.928Z,26.23
2017-07-11T00:06:38.779Z,27.60
2017-07-11T00:09:09.051Z,26.90
2017-07-11T00:11:38.895Z,28.97
2017-07-11T00:14:09.176Z,27.07
2017-07-11T00:16:39.020Z,27.13
2017-07-11T00:19:09.325Z,23.60
2017-07-11T00:21:39.224Z,25.23
2017-07-11T00:24:09.446Z,27.10
2017-07-11T00:26:39.299Z,27.30
2017-07-11T00:29:09.183Z,26.27
2017-07-11T00:31:39.481Z,28.20
2017-07-11T00:34:09.343Z,28.17
2017-07-11T00:36:39.575Z,28.10
2017-07-11T00:39:09.433Z,28.97
2017-07-11T00:41:39.330Z,26.73
2017-07-11T00:44:09.586Z,29.47
2017-07-11T00:46:39.441Z,30.50
2017-07-11T00:49:09.356Z,32.00
2017-07-11T00:51:39.539Z,33.30
2017-07-11T00:54:09.527Z,33.30
2017-07-11T00:56:39.402Z,35.47
2017-07-11T00:59:10.192Z,34.53
2017-07-11T01:01:40.128Z,30.77
2017-07-11T01:04:10.411Z,33.00
2017-07-11T01:06:40.254Z,32.67
2017-07-11T01:09:10.455Z,30.23
2017-07-11T01:11:40.398Z,31.47
2017-07-11T01:14:10.257Z,30.90
2017-07-11T01:16:40.450Z,30.60
2017-07-11T01:19:10.296Z,31.87
2017-07-11T01:21:40.242Z,32.50
2017-07-11T01:24:10.480Z,33.20
2017-07-11T01:26:40.355Z,35.27
2017-07-11T01:29:10.231Z,35.80
2017-07-11T01:31:40.422Z,33.10
2017-07-11T01:34:10.292Z,32.00
2017-07-11T01:36:40.180Z,33.30
2017-07-11T01:39:10.378Z,32.40
2017-07-11T01:41:40.244Z,32.17
2017-07-11T01:44:10.547Z,29.63
2017-07-11T01:46:40.401Z,27.10
2017-07-11T01:49:10.263Z,27.63
2017-07-11T01:51:40.619Z,29.00
2017-07-11T01:54:10.466Z,28.07
2017-07-11T01:56:40.303Z,28.10
2017-07-11T01:59:10.519Z,30.63
2017-07-11T02:01:40.375Z,26.93
2017-07-11T02:04:10.225Z,25.10
2017-07-11T02:06:40.505Z,24.70
2017-07-11T02:09:10.359Z,23.30
2017-07-11T02:11:40.293Z,21.60
2017-07-11T02:14:10.563Z,21.00
2017-07-11T02:16:40.432Z,21.60
2017-07-11T02:19:10.303Z,22.03
2017-07-11T02:21:40.505Z,22.07
2017-07-11T02:24:10.362Z,21.27
2017-07-11T02:26:40.261Z,23.40
2017-07-11T02:29:10.666Z,23.57
2017-07-11T02:31:40.534Z,22.63
2017-07-11T02:34:10.450Z,23.87
2017-07-11T02:36:40.629Z,27.77
2017-07-11T02:39:10.475Z,23.23
2017-07-11T02:41:40.351Z,24.10
2017-07-11T02:44:10.708Z,24.20
2017-07-11T02:46:40.601Z,25.83
2017-07-11T02:49:10.890Z,23.67
2017-07-11T02:51:40.740Z,24.90
2017-07-11T02:54:11.031Z,24.83
2017-07-11T02:56:40.888Z,27.50
2017-07-11T02:59:11.148Z,25.33
2017-07-11T03:01:41.010Z,24.97
2017-07-11T03:04:11.311Z,25.83
2017-07-11T03:06:41.173Z,27.93
2017-07-11T03:09:11.431Z,26.23
2017-07-11T03:11:41.276Z,27.17
2017-07-11T03:14:11.557Z,29.00
2017-07-11T03:16:41.406Z,25.93
2017-07-11T03:19:11.296Z,28.90
2017-07-11T03:21:41.493Z,28.30
2017-07-11T03:24:11.332Z,29.73
2017-07-11T03:26:41.219Z,27.87
2017-07-11T03:29:11.437Z,30.60
2017-07-11T03:31:41.282Z,32.43
2017-07-11T03:34:11.583Z,33.07
2017-07-11T03:36:41.485Z,35.70
2017-07-11T03:39:11.337Z,33.73
2017-07-11T03:41:41.628Z,33.83
2017-07-11T03:44:11.472Z,37.27
2017-07-11T03:46:41.337Z,36.30
2017-07-11T03:49:11.667Z,35.77
2017-07-11T03:51:41.519Z,36.20
2017-07-11T03:54:11.753Z,35.60
2017-07-11T03:56:41.620Z,37.07
2017-07-11T03:59:11.851Z,36.70
2017-07-11T04:01:41.708Z,37.87
2017-07-11T04:04:11.984Z,39.37
2017-07-11T04:06:41.848Z,38.93
2017-07-11T04:09:12.218Z,37.70
2017-07-11T04:11:42.110Z,37.53
2017-07-11T04:14:12.340Z,39.40
2017-07-11T04:16:42.194Z,39.10
2017-07-11T04:19:12.472Z,39.17
2017-07-11T04:21:42.376Z,38.30
2017-07-11T04:24:12.662Z,40.17
2017-07-11T04:26:42.685Z,37.97
2017-07-11T04:29:12.978Z,38.67
2017-07-11T04:31:42.854Z,37.07
2017-07-11T04:34:14.120Z,37.80
2017-07-11T04:36:43.964Z,40.60
2017-07-11T04:39:14.248Z,36.47
2017-07-11T04:41:44.086Z,36.33
2017-07-11T04:44:14.291Z,38.00
2017-07-11T04:46:44.141Z,39.20
2017-07-11T04:49:14.370Z,38.47
2017-07-11T04:51:44.223Z,40.00
2017-07-11T04:54:14.522Z,40.47
2017-07-11T04:56:44.384Z,38.40
2017-07-11T04:59:14.996Z,42.07
2017-07-11T05:01:44.854Z,38.13
2017-07-11T05:04:15.063Z,40.17
2017-07-11T05:06:44.914Z,40.10
2017-07-11T05:09:15.169Z,39.07
2017-07-11T05:11:45.001Z,40.10
2017-07-11T05:14:15.298Z,40.53
2017-07-11T05:16:45.145Z,41.90
2017-07-11T05:19:15.433Z,39.50
2017-07-11T05:21:45.285Z,38.60
2017-07-11T05:24:15.562Z,38.80
2017-07-11T05:26:45.420Z,39.63
2017-07-11T05:29:15.275Z,40.20
2017-07-11T05:31:45.610Z,41.63
2017-07-11T05:34:15.490Z,37.17
2017-07-11T05:36:45.359Z,37.00
2017-07-11T05:39:15.556Z,39.13
2017-07-11T05:41:45.429Z,36.87
2017-07-11T05:44:15.286Z,37.83
2017-07-11T05:46:45.502Z,36.40
2017-07-11T05:49:15.392Z,36.33
2017-07-11T05:51:45.856Z,35.87
2017-07-11T05:54:15.706Z,37.50
2017-07-11T05:56:46.018Z,37.97
2017-07-11T05:59:15.972Z,38.07
2017-07-11T06:01:46.223Z,37.47
2017-07-11T06:04:16.098Z,37.07
2017-07-11T06:06:46.263Z,36.87
2017-07-11T06:09:16.112Z,36.07
2017-07-11T06:11:46.456Z,37.00
2017-07-11T06:14:16.297Z,37.47
2017-07-11T06:16:46.522Z,37.40
2017-07-11T06:19:16.385Z,36.10
2017-07-11T06:21:46.297Z,37.37
2017-07-11T06:24:16.537Z,34.27
2017-07-11T06:26:46.405Z,37.27
2017-07-11T06:29:16.265Z,36.90
2017-07-11T06:31:46.514Z,35.27
2017-07-11T06:34:16.394Z,35.43
2017-07-11T06:36:46.264Z,33.47
2017-07-11T06:39:16.563Z,36.27
2017-07-11T06:41:46.429Z,32.67
2017-07-11T06:44:16.349Z,35.60
2017-07-11T06:46:46.607Z,35.70
2017-07-11T06:49:16.461Z,34.10
2017-07-11T06:51:46.350Z,34.60
2017-07-11T06:54:16.560Z,35.50
2017-07-11T06:56:46.416Z,35.83
2017-07-11T06:59:16.268Z,37.50
2017-07-11T07:04:22.835Z,37.10
2017-07-11T07:06:53.181Z,36.97
2017-07-11T07:09:23.035Z,37.10
2017-07-11T07:11:53.243Z,36.63
2017-07-11T07:14:23.165Z,39.20
2017-07-11T07:16:53.452Z,35.93
2017-07-11T07:19:23.307Z,33.37
2017-07-11T07:21:53.589Z,32.67
2017-07-11T07:24:23.437Z,31.80
2017-07-11T07:26:53.446Z,33.57
2017-07-11T07:29:23.692Z,30.00
2017-07-11T07:31:53.551Z,29.47
2017-07-11T07:34:23.791Z,30.30
2017-07-11T07:36:53.631Z,31.10
2017-07-11T07:39:23.905Z,28.07
2017-07-11T07:41:53.755Z,30.10
2017-07-11T07:44:23.960Z,31.53
2017-07-11T07:46:53.828Z,26.40
2017-07-11T07:49:24.037Z,29.27
2017-07-11T07:51:53.922Z,30.23
2017-07-11T07:54:24.203Z,29.20
2017-07-11T07:56:54.082Z,28.40
2017-07-11T07:59:24.291Z,27.37
2017-07-11T08:01:54.158Z,26.03
2017-07-11T08:04:24.372Z,28.23
2017-07-11T08:06:54.267Z,29.67
2017-07-11T08:09:24.531Z,26.70
2017-07-11T08:11:55.065Z,28.33
2017-07-11T08:14:25.268Z,28.77
2017-07-11T08:16:55.194Z,27.87
2017-07-11T08:19:25.500Z,27.07
2017-07-11T08:21:55.351Z,30.30
2017-07-11T08:24:25.637Z,31.43
2017-07-11T08:26:55.906Z,27.63
2017-07-11T08:29:26.223Z,28.00
2017-07-11T08:31:56.090Z,29.30
2017-07-11T08:34:26.270Z,26.90
2017-07-11T08:36:56.124Z,22.10
2017-07-11T08:39:26.349Z,23.20
2017-07-11T08:41:56.201Z,20.40
2017-07-11T08:44:26.509Z,22.47
2017-07-11T08:46:56.376Z,21.67
2017-07-11T08:49:26.600Z,20.47
2017-07-11T08:51:56.443Z,19.80
2017-07-11T08:54:26.313Z,20.67
2017-07-11T08:56:56.559Z,19.67
2017-07-11T08:59:26.474Z,22.30
2017-07-11T09:01:56.346Z,18.73
2017-07-11T09:04:26.610Z,20.50
2017-07-11T09:06:56.470Z,20.60
2017-07-11T09:09:26.345Z,18.20
2017-07-11T09:11:56.651Z,19.57
2017-07-11T09:14:26.510Z,19.60
2017-07-11T09:16:57.207Z,19.90
2017-07-11T09:19:27.330Z,21.30
2017-07-11T09:21:57.561Z,20.50
2017-07-11T09:24:27.411Z,19.87
2017-07-11T09:26:57.313Z,23.73
2017-07-11T09:29:27.495Z,22.40
2017-07-11T09:31:57.382Z,21.10
2017-07-11T09:34:27.399Z,23.27
2017-07-11T09:36:57.742Z,22.60
2017-07-11T09:39:27.605Z,21.13
2017-07-11T09:41:57.862Z,21.90
2017-07-11T09:44:27.757Z,21.87
2017-07-11T09:46:58.003Z,22.47
2017-07-11T09:49:27.869Z,21.27
2017-07-11T09:51:58.156Z,21.27
2017-07-11T09:54:28.042Z,22.30
2017-07-11T09:56:58.325Z,20.43
2017-07-11T09:59:28.179Z,22.60
2017-07-11T10:01:58.472Z,21.80
2017-07-11T10:04:28.362Z,22.60
2017-07-11T10:06:58.649Z,20.93
2017-07-11T10:09:28.508Z,20.20
2017-07-11T10:11:58.388Z,20.30
2017-07-11T10:14:28.706Z,19.83
2017-07-11T10:16:58.583Z,18.93
2017-07-11T10:19:28.799Z,18.20
2017-07-11T10:21:58.718Z,18.97
2017-07-11T10:24:28.946Z,20.47
2017-07-11T10:26:58.977Z,18.40
2017-07-11T10:29:29.308Z,18.03
2017-07-11T10:31:59.172Z,18.57
2017-07-11T10:34:29.527Z,17.20
2017-07-11T10:36:59.442Z,17.03
2017-07-11T10:39:29.633Z,18.47
2017-07-11T10:41:59.557Z,17.57
2017-07-11T10:44:29.814Z,16.73
2017-07-11T10:46:59.763Z,17.13
2017-07-11T10:49:29.983Z,16.30
2017-07-11T10:51:59.841Z,16.47
2017-07-11T10:54:30.095Z,15.67
2017-07-11T10:56:59.946Z,15.63
2017-07-11T10:59:30.223Z,17.57
2017-07-11T11:02:00.108Z,18.43
2017-07-11T11:04:30.314Z,22.37
2017-07-11T11:07:00.162Z,19.13
2017-07-11T11:09:30.377Z,16.80
2017-07-11T11:12:00.262Z,19.00
2017-07-11T11:14:30.519Z,18.87
2017-07-11T11:17:00.381Z,20.93
2017-07-11T11:19:30.248Z,21.17
2017-07-11T11:22:00.486Z,26.97
2017-07-11T11:24:30.343Z,27.70
2017-07-11T11:27:00.211Z,28.13
2017-07-11T11:29:30.423Z,31.60
2017-07-11T11:32:00.296Z,31.73
2017-07-11T11:34:30.556Z,28.77
2017-07-11T11:37:00.416Z,22.57
2017-07-11T11:39:30.301Z,26.77
2017-07-11T11:42:00.628Z,24.97
2017-07-11T11:44:30.511Z,25.83
2017-07-11T11:47:00.397Z,24.40
2017-07-11T11:49:30.614Z,23.00
2017-07-11T11:52:00.465Z,25.13
2017-07-11T11:54:30.383Z,23.23
2017-07-11T11:57:00.617Z,22.60
2017-07-11T11:59:30.492Z,29.00
2017-07-11T12:02:00.361Z,32.00
2017-07-11T12:04:30.634Z,22.80
2017-07-11T12:07:00.496Z,21.60
2017-07-11T12:09:30.385Z,18.87
2017-07-11T12:12:00.607Z,19.47
2017-07-11T12:14:30.511Z,24.90
2017-07-11T12:17:00.387Z,27.37
2017-07-11T12:19:30.633Z,25.77
2017-07-11T12:22:00.509Z,28.90
2017-07-11T12:24:30.406Z,33.10
2017-07-11T12:27:00.724Z,31.43
2017-07-11T12:29:30.597Z,35.00
2017-07-11T12:32:00.831Z,32.47
2017-07-11T12:34:30.700Z,28.10
2017-07-11T12:37:00.965Z,32.17
2017-07-11T12:39:31.574Z,30.50
2017-07-11T12:42:01.852Z,27.30
2017-07-11T12:44:31.710Z,24.33
2017-07-11T12:47:01.939Z,28.23
2017-07-11T12:49:31.806Z,29.00
2017-07-11T12:52:02.086Z,30.10
2017-07-11T12:54:32.015Z,25.50
2017-07-11T12:57:02.299Z,23.50
2017-07-11T12:59:32.167Z,23.17
2017-07-11T13:02:02.459Z,25.20
2017-07-11T13:04:32.309Z,24.30
2017-07-11T13:07:02.601Z,21.20
2017-07-11T13:09:32.458Z,12.33
2017-07-11T13:12:02.329Z,10.70
2017-07-11T13:14:32.623Z,6.87
2017-07-11T13:17:02.507Z,7.13
2017-07-11T13:19:32.409Z,7.60
2017-07-11T13:22:02.686Z,6.30
2017-07-11T13:24:32.536Z,7.20
2017-07-11T13:27:02.822Z,7.07
2017-07-11T13:29:32.739Z,7.90
2017-07-11T13:32:03.033Z,7.30
2017-07-11T13:34:32.887Z,7.83
2017-07-11T13:37:03.188Z,8.37
2017-07-11T13:39:33.949Z,8.07
2017-07-11T13:42:04.247Z,7.97
2017-07-11T13:44:34.096Z,8.80
2017-07-11T13:47:04.363Z,9.57
2017-07-11T13:49:34.222Z,9.27
2017-07-11T13:52:04.678Z,8.27
2017-07-11T13:54:34.538Z,8.23
2017-07-11T13:57:04.990Z,7.97
2017-07-11T13:59:34.831Z,8.43
2017-07-11T14:02:05.074Z,9.10
2017-07-11T14:04:35.026Z,9.23
2017-07-11T14:07:05.311Z,8.73
2017-07-11T14:09:35.175Z,8.97
2017-07-11T14:12:05.451Z,9.13
2017-07-11T14:14:35.431Z,9.40
2017-07-11T14:17:05.327Z,9.83
2017-07-11T14:19:35.703Z,8.27
2017-07-11T14:22:05.584Z,9.40
2017-07-11T14:24:35.924Z,9.47
2017-07-11T14:27:05.779Z,8.40
2017-07-11T14:29:36.082Z,8.37
2017-07-11T14:32:05.973Z,8.00
2017-07-11T14:34:36.191Z,9.03
2017-07-11T14:37:06.054Z,8.67
2017-07-11T14:39:36.431Z,8.20
2017-07-11T14:42:06.286Z,10.20
2017-07-11T14:44:37.517Z,8.77
2017-07-11T14:47:07.405Z,7.87
2017-07-11T14:49:37.278Z,7.43
2017-07-11T14:52:07.550Z,7.37
2017-07-11T14:54:37.423Z,6.80
2017-07-11T14:57:07.288Z,6.67
2017-07-11T14:59:37.738Z,6.20
2017-07-11T15:02:07.586Z,6.10
2017-07-11T15:04:37.966Z,5.80
2017-07-11T15:07:07.888Z,5.83
2017-07-11T15:09:38.097Z,5.83
2017-07-11T15:12:07.955Z,4.63
2017-07-11T15:14:38.181Z,4.33
2017-07-11T15:17:08.033Z,4.70
2017-07-11T15:19:38.363Z,4.60
2017-07-11T15:22:08.220Z,4.70
2017-07-11T15:24:38.480Z,5.10
2017-07-11T15:27:08.359Z,5.03
2017-07-11T15:29:38.670Z,5.10
2017-07-11T15:32:08.554Z,5.50
2017-07-11T15:34:38.875Z,4.90
2017-07-11T15:37:08.714Z,6.27
2017-07-11T15:39:38.956Z,6.27
2017-07-11T15:42:08.849Z,6.60
2017-07-11T15:44:39.047Z,5.80
2017-07-11T15:47:08.903Z,5.80
2017-07-11T15:49:39.121Z,4.93
2017-07-11T15:52:08.978Z,4.40
2017-07-11T15:54:39.176Z,3.60
2017-07-11T15:57:09.086Z,5.07
2017-07-11T15:59:39.285Z,5.10
2017-07-11T16:02:09.171Z,7.17
2017-07-11T16:04:39.334Z,5.77
2017-07-11T16:07:09.174Z,6.40
2017-07-11T16:09:39.449Z,6.10
2017-07-11T16:12:09.318Z,5.80
2017-07-11T16:14:39.525Z,5.60
2017-07-11T16:17:09.389Z,5.57
2017-07-11T16:19:39.267Z,5.80
2017-07-11T16:22:09.620Z,5.10
2017-07-11T16:24:39.452Z,5.57
2017-07-11T16:27:09.411Z,5.80
2017-07-11T16:29:39.723Z,5.73
2017-07-11T16:32:09.573Z,6.63
2017-07-11T16:34:39.855Z,6.27
2017-07-11T16:37:09.718Z,7.20
2017-07-11T16:39:40.002Z,6.70
2017-07-11T16:42:09.890Z,6.37
2017-07-11T16:44:40.224Z,6.97
2017-07-11T16:47:10.098Z,7.63
2017-07-11T16:49:40.392Z,5.43
2017-07-11T16:52:10.273Z,6.77
2017-07-11T16:54:40.536Z,7.40
2017-07-11T16:57:10.410Z,8.53
2017-07-11T16:59:40.304Z,9.57
2017-07-11T17:02:10.535Z,9.00
2017-07-11T17:04:40.384Z,8.87
2017-07-11T17:07:10.264Z,6.60
2017-07-11T17:09:40.478Z,7.90
2017-07-11T17:12:10.337Z,8.90
2017-07-11T17:14:40.227Z,11.20
2017-07-11T17:17:10.538Z,10.87
2017-07-11T17:19:40.384Z,9.07
2017-07-11T17:22:10.258Z,9.90
2017-07-11T17:24:40.561Z,10.73
2017-07-11T17:27:10.441Z,9.87
2017-07-11T17:29:40.375Z,9.27
2017-07-11T17:32:10.585Z,9.50
2017-07-11T17:34:40.447Z,8.80
2017-07-11T17:37:10.367Z,9.93
2017-07-11T17:39:40.670Z,11.93
2017-07-11T17:42:10.562Z,12.33
2017-07-11T17:44:40.828Z,14.20
2017-07-11T17:47:10.715Z,13.00
2017-07-11T17:49:41.054Z,14.27
2017-07-11T17:52:10.907Z,15.80
2017-07-11T17:54:41.191Z,14.43
2017-07-11T17:57:11.058Z,14.97
2017-07-11T17:59:41.261Z,14.60
2017-07-11T18:02:11.119Z,15.67
2017-07-11T18:04:41.355Z,14.10
2017-07-11T18:07:11.213Z,17.00
2017-07-11T18:09:41.509Z,16.87
2017-07-11T18:12:11.349Z,17.67
2017-07-11T18:14:41.241Z,17.40
2017-07-11T18:17:11.614Z,18.40
2017-07-11T18:19:41.473Z,18.73
2017-07-11T18:22:11.364Z,17.07
2017-07-11T18:24:41.718Z,15.73
2017-07-11T18:27:11.591Z,16.03
2017-07-11T18:29:41.778Z,18.80
2017-07-11T18:32:11.643Z,19.40
2017-07-11T18:34:41.805Z,18.50
2017-07-11T18:37:11.718Z,19.60
2017-07-11T18:39:41.990Z,15.93
2017-07-11T18:42:11.965Z,14.73
2017-07-11T18:44:42.220Z,12.77
2017-07-11T18:47:12.235Z,11.57
2017-07-11T18:49:42.572Z,11.27
2017-07-11T18:52:12.748Z,11.10
2017-07-11T18:54:43.078Z,10.77
2017-07-11T18:57:12.986Z,9.93
2017-07-11T18:59:43.203Z,9.87
2017-07-11T19:02:13.068Z,11.20
2017-07-11T19:04:43.295Z,9.47
2017-07-11T19:07:13.168Z,10.63
2017-07-11T19:09:43.528Z,8.97
2017-07-11T19:12:13.501Z,9.50
2017-07-11T19:14:43.776Z,10.27
2017-07-11T19:17:13.711Z,9.97
2017-07-11T19:19:44.007Z,9.70
2017-07-11T19:22:13.890Z,9.10
2017-07-11T19:24:44.140Z,8.27
2017-07-11T19:27:14.049Z,7.87
2017-07-11T19:29:44.443Z,8.53
2017-07-11T19:32:14.632Z,7.90
2017-07-11T19:34:45.129Z,8.57
2017-07-11T19:37:15.271Z,7.50
2017-07-11T19:39:45.754Z,7.80
2017-07-11T19:42:15.724Z,8.60
2017-07-11T19:44:46.025Z,6.87
2017-07-11T19:47:15.887Z,7.53
2017-07-11T19:49:46.119Z,8.63
2017-07-11T19:52:18.411Z,7.23
2017-07-11T19:54:49.261Z,7.33
2017-07-11T19:57:19.162Z,6.00
2017-07-11T19:59:49.460Z,6.97
2017-07-11T20:02:19.338Z,6.60
2017-07-11T20:04:49.714Z,6.80
2017-07-11T20:07:19.622Z,6.00
2017-07-11T20:09:49.980Z,6.20
2017-07-11T20:12:19.871Z,5.60
2017-07-11T20:14:50.186Z,6.10
2017-07-11T20:17:20.049Z,5.60
2017-07-11T20:19:50.305Z,5.43
2017-07-11T20:22:20.157Z,6.20
2017-07-11T20:24:50.439Z,5.80
2017-07-11T20:27:20.342Z,6.10
2017-07-11T20:29:50.553Z,5.50
2017-07-11T20:32:20.959Z,5.63
2017-07-11T20:34:51.260Z,6.90
2017-07-11T20:37:21.310Z,6.17
2017-07-11T20:39:51.580Z,6.53
2017-07-11T20:42:21.569Z,5.23
2017-07-11T20:44:51.978Z,5.87
2017-07-11T20:47:21.859Z,5.77
2017-07-11T20:49:52.177Z,5.83
2017-07-11T20:52:22.030Z,5.73
2017-07-11T20:54:52.233Z,6.47
2017-07-11T20:57:22.100Z,6.90
2017-07-11T20:59:52.406Z,7.00
2017-07-11T21:02:22.258Z,7.40
2017-07-11T21:04:52.531Z,6.70
2017-07-11T21:07:22.407Z,7.20
2017-07-11T21:09:52.326Z,7.63
2017-07-11T21:12:22.550Z,7.23
2017-07-11T21:14:52.406Z,7.20
2017-07-11T21:17:22.279Z,7.13
2017-07-11T21:19:52.511Z,6.93
2017-07-11T21:22:22.384Z,7.77
2017-07-11T21:24:52.241Z,7.83
2017-07-11T21:27:22.462Z,7.77
2017-07-11T21:29:52.377Z,8.27
2017-07-11T21:32:22.251Z,7.43
2017-07-11T21:34:52.516Z,7.40
2017-07-11T21:37:22.449Z,7.37
2017-07-11T21:39:52.385Z,7.37
2017-07-11T21:42:22.710Z,7.63
2017-07-11T21:44:52.564Z,8.00
2017-07-11T21:47:22.888Z,8.20
2017-07-11T21:49:52.773Z,7.47
2017-07-11T21:52:23.208Z,7.80
2017-07-11T21:54:53.190Z,7.30
2017-07-11T21:57:23.594Z,8.73
2017-07-11T21:59:53.530Z,8.00
2017-07-11T22:02:23.406Z,8.30
2017-07-11T22:04:53.650Z,7.47
2017-07-11T22:07:23.506Z,7.40
2017-07-11T22:09:53.395Z,7.63
2017-07-11T22:12:23.618Z,6.97
2017-07-11T22:14:53.476Z,7.67
2017-07-11T22:17:23.347Z,7.87
2017-07-11T22:19:53.554Z,7.63
2017-07-11T22:22:23.459Z,8.50
2017-07-11T22:24:53.380Z,8.50
2017-07-11T22:27:23.649Z,7.03
2017-07-11T22:29:53.517Z,7.33
2017-07-11T22:32:23.473Z,8.00
2017-07-11T22:34:53.757Z,7.43
2017-07-11T22:37:23.639Z,7.57
2017-07-11T22:39:53.903Z,8.20
2017-07-11T22:42:23.790Z,8.40
2017-07-11T22:44:53.969Z,8.50
2017-07-11T22:47:23.840Z,7.57
2017-07-11T22:49:54.150Z,8.20
2017-07-11T22:52:23.982Z,8.77
2017-07-11T22:54:54.218Z,8.73
2017-07-11T22:57:24.093Z,8.90
2017-07-11T22:59:54.334Z,9.30
2017-07-11T23:02:24.194Z,10.60
2017-07-11T23:04:54.471Z,10.77
2017-07-11T23:07:24.312Z,10.37
2017-07-11T23:09:54.580Z,10.37
2017-07-11T23:12:24.481Z,9.53
2017-07-11T23:14:54.727Z,8.47
2017-07-11T23:17:24.595Z,8.23
2017-07-11T23:19:54.965Z,8.63
2017-07-11T23:22:24.811Z,8.53
2017-07-11T23:24:54.760Z,8.70
2017-07-11T23:27:25.089Z,8.50
2017-07-11T23:29:54.975Z,8.70
2017-07-11T23:32:25.303Z,8.47
2017-07-11T23:34:55.159Z,8.50
2017-07-11T23:37:25.367Z,9.00
2017-07-11T23:39:55.232Z,8.27
2017-07-11T23:42:25.487Z,8.67
2017-07-11T23:44:55.355Z,7.97
2017-07-11T23:47:25.250Z,8.10
2017-07-11T23:49:55.648Z,9.37
2017-07-11T23:52:25.511Z,8.10
2017-07-11T23:54:55.389Z,9.07
2017-07-11T23:57:25.591Z,7.53
2017-07-11T23:59:55.481Z,9.00
